Time;durP1;ratioP1;P1;durP2;ratioP2;P2;SDS_P1;SDS_P2;PMS_P1;PMS_P2;Temp;Humidity;BMP_temperature;BMP_pressure;BME280_temperature;BME280_humidity;BME280_pressure;Samples;Min_cycle;Max_cycle;Signal;HPM_P1;HPM_P2
2021/05/07 00:00:56;;;;;;;2.75;1.73;;;5.50;84.40;;;;;;5032689;28;20500;-76
2021/05/07 00:03:22;;;;;;;2.25;1.40;;;5.50;84.30;;;;;;5032124;28;20042;-76
2021/05/07 00:05:54;;;;;;;2.08;1.70;;;5.60;84.40;;;;;;5032648;28;20033;-77
2021/05/07 00:08:32;;;;;;;2.42;1.73;;;5.60;84.30;;;;;;5015059;28;20018;-76
2021/05/07 00:11:10;;;;;;;1.63;1.50;;;5.60;84.30;;;;;;5032740;28;20024;-77
2021/05/07 00:13:37;;;;;;;1.85;1.52;;;5.50;84.30;;;;;;5032530;28;20021;-75
2021/05/07 00:16:03;;;;;;;1.33;1.23;;;5.50;84.30;;;;;;5032581;28;20112;-76
2021/05/07 00:18:29;;;;;;;2.20;1.77;;;5.50;84.40;;;;;;5032076;28;20053;-76
2021/05/07 00:20:55;;;;;;;2.13;1.40;;;5.50;84.50;;;;;;5032592;28;20029;-76
2021/05/07 00:23:20;;;;;;;2.10;1.33;;;5.50;85.00;;;;;;5035117;28;20489;-74
2021/05/07 00:25:49;;;;;;;2.70;1.80;;;5.40;84.40;;;;;;5035894;28;20385;-77
2021/05/07 00:28:17;;;;;;;1.93;1.57;;;5.40;84.40;;;;;;5036152;28;20033;-76
2021/05/07 00:30:43;;;;;;;2.15;1.60;;;5.40;84.40;;;;;;5035823;28;20275;-76
2021/05/07 00:33:08;;;;;;;1.70;1.38;;;5.30;84.50;;;;;;5035486;28;20021;-75
2021/05/07 00:35:34;;;;;;;1.38;1.23;;;5.40;84.60;;;;;;5035850;28;20030;-75
2021/05/07 00:38:00;;;;;;;2.60;2.30;;;5.40;84.60;;;;;;5036052;28;20029;-77
2021/05/07 00:40:26;;;;;;;2.00;1.45;;;5.40;84.40;;;;;;5018009;28;20474;-76
2021/05/07 00:42:52;;;;;;;1.65;1.30;;;5.40;84.40;;;;;;5017845;28;20037;-76
2021/05/07 00:45:18;;;;;;;1.67;1.48;;;5.40;84.40;;;;;;5035642;28;20440;-76
2021/05/07 00:47:48;;;;;;;1.65;1.13;;;5.40;84.40;;;;;;5035058;28;20390;-76
2021/05/07 00:50:16;;;;;;;1.52;1.23;;;5.30;84.40;;;;;;5035475;28;20084;-76
2021/05/07 00:52:42;;;;;;;2.08;1.55;;;5.30;84.50;;;;;;5035430;28;20025;-76
2021/05/07 00:55:09;;;;;;;1.30;1.20;;;5.20;84.60;;;;;;5035769;28;20060;-76
2021/05/07 00:57:36;;;;;;;2.58;2.22;;;5.10;84.60;;;;;;5035324;28;20025;-76
2021/05/07 01:00:07;;;;;;;1.75;1.35;;;5.10;85.30;;;;;;5035457;28;20021;-76
2021/05/07 01:02:34;;;;;;;1.77;1.10;;;5.10;84.70;;;;;;5034806;28;20116;-76
2021/05/07 01:05:00;;;;;;;3.03;1.63;;;5.10;84.60;;;;;;5035687;28;20078;-76
2021/05/07 01:07:27;;;;;;;1.63;1.20;;;5.10;84.60;;;;;;5035338;28;20541;-75
2021/05/07 01:09:52;;;;;;;1.48;1.10;;;5.00;84.50;;;;;;5035186;28;20492;-76
2021/05/07 01:12:19;;;;;;;1.50;1.40;;;5.00;84.50;;;;;;5035315;28;20025;-76
2021/05/07 01:15:00;;;;;;;1.40;1.30;;;5.00;84.40;;;;;;5035089;28;20033;-75
2021/05/07 01:17:27;;;;;;;1.30;1.20;;;5.00;84.40;;;;;;5034742;28;20474;-75
2021/05/07 01:19:52;;;;;;;1.40;1.13;;;5.00;84.40;;;;;;5035159;28;20022;-75
2021/05/07 01:22:18;;;;;;;2.00;1.30;;;5.00;84.50;;;;;;5035173;28;20037;-75
2021/05/07 01:24:45;;;;;;;1.20;1.10;;;4.90;84.40;;;;;;5034719;28;20025;-76
2021/05/07 01:27:10;;;;;;;1.20;1.10;;;4.90;84.40;;;;;;5016985;28;20053;-75
2021/05/07 01:29:36;;;;;;;1.33;1.08;;;5.00;84.40;;;;;;5034757;28;20033;-76
2021/05/07 01:32:02;;;;;;;1.08;1.00;;;5.00;84.30;;;;;;5016486;28;20029;-76
2021/05/07 01:34:28;;;;;;;1.17;1.08;;;4.90;84.20;;;;;;5033703;28;20013;-76
2021/05/07 01:36:55;;;;;;;1.40;1.30;;;4.80;84.20;;;;;;5034664;28;20036;-76
2021/05/07 01:39:20;;;;;;;1.80;1.67;;;4.80;84.40;;;;;;5034691;28;20485;-74
2021/05/07 01:41:46;;;;;;;1.33;1.23;;;4.70;84.40;;;;;;5033220;28;20060;-76
2021/05/07 01:44:11;;;;;;;1.83;1.35;;;4.70;84.60;;;;;;5034566;28;20029;-76
2021/05/07 01:46:37;;;;;;;2.33;1.83;;;4.60;84.70;;;;;;5034062;28;20026;-76
2021/05/07 01:49:02;;;;;;;1.58;1.48;;;4.50;84.80;;;;;;5034495;28;20030;-76
2021/05/07 01:51:28;;;;;;;1.88;1.52;;;4.50;85.00;;;;;;5034611;28;20068;-76
2021/05/07 01:53:53;;;;;;;2.28;1.70;;;4.40;85.00;;;;;;5034425;28;20048;-77
2021/05/07 01:56:19;;;;;;;1.55;1.45;;;4.40;85.10;;;;;;5034442;28;20078;-76
2021/05/07 01:58:45;;;;;;;2.08;1.67;;;4.40;85.20;;;;;;5034415;28;20485;-76
2021/05/07 02:01:14;;;;;;;2.33;1.98;;;4.30;85.20;;;;;;5033633;28;20021;-75
2021/05/07 02:03:39;;;;;;;3.00;1.50;;;4.30;85.30;;;;;;5034305;28;20060;-75
2021/05/07 02:06:05;;;;;;;3.63;1.73;;;4.30;85.40;;;;;;5034243;28;20053;-76
2021/05/07 02:08:30;;;;;;;2.55;1.67;;;4.30;85.40;;;;;;5034101;28;20025;-76
2021/05/07 02:10:56;;;;;;;1.65;1.50;;;4.30;86.00;;;;;;5034020;28;20101;-75
2021/05/07 02:13:21;;;;;;;1.92;1.55;;;4.30;85.40;;;;;;5033600;28;20064;-76
2021/05/07 02:15:47;;;;;;;1.40;1.30;;;4.20;86.10;;;;;;5032796;28;20049;-76
2021/05/07 02:18:13;;;;;;;2.03;1.40;;;4.20;85.50;;;;;;5033876;28;20385;-77
2021/05/07 02:20:40;;;;;;;1.65;1.38;;;4.20;85.60;;;;;;5033993;28;20052;-75
2021/05/07 02:23:06;;;;;;;2.03;1.50;;;4.20;85.50;;;;;;5033680;28;20026;-76
2021/05/07 02:25:32;;;;;;;2.00;1.85;;;4.20;85.50;;;;;;5033645;28;20457;-76
2021/05/07 02:27:58;;;;;;;1.20;1.13;;;4.20;85.60;;;;;;5033161;28;20152;-77
2021/05/07 02:30:28;;;;;;;1.65;1.02;;;4.20;85.50;;;;;;5033949;28;20018;-76
2021/05/07 02:32:54;;;;;;;1.23;1.10;;;4.20;85.40;;;;;;5033765;28;20026;-76
2021/05/07 02:35:20;;;;;;;1.80;1.50;;;4.20;85.30;;;;;;5033662;28;20029;-75
2021/05/07 02:37:46;;;;;;;1.95;1.38;;;4.20;85.10;;;;;;5033563;28;20021;-76
2021/05/07 02:40:12;;;;;;;2.20;1.63;;;4.20;85.10;;;;;;5015869;28;20021;-77
2021/05/07 02:42:38;;;;;;;2.17;1.50;;;4.30;85.00;;;;;;5033065;28;20034;-76
2021/05/07 02:45:06;;;;;;;2.47;1.63;;;4.30;85.00;;;;;;5033211;28;20052;-76
2021/05/07 02:47:33;;;;;;;2.42;1.50;;;4.20;85.00;;;;;;5033535;28;20052;-76
2021/05/07 02:49:59;;;;;;;2.85;1.50;;;4.20;85.00;;;;;;5033435;28;20025;-76
2021/05/07 02:52:25;;;;;;;2.05;1.30;;;4.20;85.10;;;;;;5033328;28;20032;-77
2021/05/07 02:54:51;;;;;;;2.30;2.00;;;4.30;85.20;;;;;;5033375;28;20462;-76
2021/05/07 02:57:16;;;;;;;2.15;1.95;;;4.30;85.10;;;;;;5032971;28;20025;-76
2021/05/07 02:59:42;;;;;;;2.20;1.95;;;4.30;85.20;;;;;;5015371;28;20014;-77
2021/05/07 03:02:08;;;;;;;2.45;1.77;;;4.40;85.20;;;;;;5033180;28;20038;-76
2021/05/07 03:04:33;;;;;;;1.75;1.50;;;4.40;85.10;;;;;;5033276;28;20033;-76
2021/05/07 03:07:00;;;;;;;1.85;1.60;;;4.40;85.10;;;;;;5033221;28;20112;-76
2021/05/07 03:09:26;;;;;;;1.60;1.38;;;4.50;85.10;;;;;;5033297;28;20022;-77
2021/05/07 03:11:52;;;;;;;1.88;1.13;;;4.60;85.00;;;;;;5014911;28;20026;-76
2021/05/07 03:14:18;;;;;;;2.13;1.42;;;4.70;85.00;;;;;;5033185;28;20025;-76
2021/05/07 03:16:44;;;;;;;1.45;1.23;;;4.70;84.80;;;;;;5033168;28;20060;-76
2021/05/07 03:19:10;;;;;;;2.03;1.55;;;4.70;84.80;;;;;;5033116;28;20351;-76
2021/05/07 03:21:36;;;;;;;2.13;1.40;;;4.70;84.90;;;;;;5032835;28;20056;-76
2021/05/07 03:24:02;;;;;;;1.55;1.42;;;4.70;84.90;;;;;;5033259;28;20033;-76
2021/05/07 03:26:27;;;;;;;1.33;1.23;;;4.70;85.00;;;;;;5032390;28;20046;-76
2021/05/07 03:28:53;;;;;;;1.98;1.50;;;4.70;85.10;;;;;;5033106;28;20022;-76
2021/05/07 03:31:18;;;;;;;1.38;1.27;;;4.70;85.10;;;;;;5033063;28;20075;-76
2021/05/07 03:33:44;;;;;;;1.10;1.00;;;4.80;85.20;;;;;;5032877;28;20095;-77
2021/05/07 03:36:10;;;;;;;1.45;1.35;;;4.80;85.10;;;;;;5033021;28;20091;-76
2021/05/07 03:38:36;;;;;;;1.17;1.08;;;4.80;85.10;;;;;;5032946;28;20477;-76
2021/05/07 03:41:01;;;;;;;2.08;1.60;;;4.90;85.00;;;;;;5032388;28;20044;-75
2021/05/07 03:43:26;;;;;;;1.77;1.25;;;5.00;85.00;;;;;;5032767;28;20037;-76
2021/05/07 03:45:52;;;;;;;1.80;1.60;;;5.00;84.90;;;;;;5032951;28;20018;-75
2021/05/07 03:48:20;;;;;;;1.55;1.25;;;5.00;84.90;;;;;;5032710;28;20474;-75
2021/05/07 03:50:47;;;;;;;1.60;1.35;;;5.10;84.80;;;;;;5032900;28;20017;-75
2021/05/07 03:53:13;;;;;;;1.63;1.02;;;5.20;84.80;;;;;;5032733;28;20397;-76
2021/05/07 03:55:39;;;;;;;1.60;1.30;;;5.20;84.70;;;;;;5032269;28;20034;-76
2021/05/07 03:58:05;;;;;;;1.02;0.90;;;5.20;84.70;;;;;;5035480;28;20033;-77
2021/05/07 04:00:31;;;;;;;1.42;1.10;;;5.20;84.80;;;;;;5036635;28;20049;-76
2021/05/07 04:02:56;;;;;;;1.40;1.30;;;5.20;84.90;;;;;;5036309;28;20068;-77
2021/05/07 04:05:22;;;;;;;1.70;1.60;;;5.30;85.00;;;;;;5036521;28;20435;-77
2021/05/07 04:07:55;;;;;;;1.67;1.58;;;5.20;85.10;;;;;;5036520;28;20025;-76
2021/05/07 04:10:21;;;;;;;1.77;1.60;;;5.30;85.20;;;;;;5036349;28;20040;-76
2021/05/07 04:15:13;;;;;;;3.03;2.00;;;5.20;85.50;;;;;;5036326;28;20485;-76
2021/05/07 04:17:39;;;;;;;6.40;3.92;;;5.10;85.80;;;;;;5036172;28;20017;-74
2021/05/07 04:20:06;;;;;;;5.18;3.97;;;4.90;86.00;;;;;;5036213;28;20026;-75
2021/05/07 04:22:32;;;;;;;4.18;2.58;;;4.70;86.60;;;;;;5035876;28;20037;-76
2021/05/07 04:24:57;;;;;;;3.55;2.55;;;4.50;87.10;;;;;;5035708;28;20092;-76
2021/05/07 04:27:23;;;;;;;3.83;2.28;;;4.40;87.30;;;;;;5035808;28;20073;-75
2021/05/07 04:29:49;;;;;;;2.60;1.83;;;4.20;87.30;;;;;;5036017;28;20108;-75
2021/05/07 04:32:14;;;;;;;2.20;1.80;;;4.00;87.60;;;;;;5036022;28;20040;-76
2021/05/07 04:34:40;;;;;;;1.77;1.27;;;3.90;87.80;;;;;;5035664;28;20082;-76
2021/05/07 04:37:05;;;;;;;1.52;1.38;;;3.90;87.90;;;;;;5035812;28;20029;-75
2021/05/07 04:39:31;;;;;;;1.65;1.52;;;3.90;87.60;;;;;;5017539;28;20021;-76
2021/05/07 04:41:56;;;;;;;1.13;0.90;;;3.90;87.50;;;;;;5035733;28;20037;-76
2021/05/07 04:44:22;;;;;;;1.10;1.05;;;4.00;87.40;;;;;;5035735;28;20022;-76
2021/05/07 04:46:47;;;;;;;0.88;0.88;;;4.10;87.10;;;;;;5017727;28;20385;-75
2021/05/07 04:49:13;;;;;;;1.15;0.90;;;4.20;86.80;;;;;;5017964;28;20037;-76
2021/05/07 04:51:38;;;;;;;1.50;1.40;;;4.30;86.60;;;;;;5035570;28;20014;-76
2021/05/07 04:54:05;;;;;;;0.70;0.70;;;4.40;86.40;;;;;;5035235;28;20466;-76
2021/05/07 04:56:30;;;;;;;0.77;0.77;;;4.40;86.30;;;;;;5035855;28;20079;-76
2021/05/07 04:58:56;;;;;;;0.80;0.80;;;4.40;86.20;;;;;;5035456;28;20022;-76
2021/05/07 05:01:21;;;;;;;0.85;0.80;;;4.40;86.30;;;;;;5035520;28;20389;-76
2021/05/07 05:03:47;;;;;;;1.08;1.08;;;4.40;86.50;;;;;;5035339;28;20490;-77
2021/05/07 05:06:13;;;;;;;0.80;0.80;;;4.40;86.60;;;;;;5035156;28;20032;-77
2021/05/07 05:08:39;;;;;;;0.70;0.70;;;4.30;86.60;;;;;;5034681;28;20013;-75
2021/05/07 05:11:04;;;;;;;1.48;1.10;;;4.40;86.80;;;;;;5035181;28;20055;-76
2021/05/07 05:13:30;;;;;;;0.75;0.75;;;4.30;86.60;;;;;;5035274;28;20052;-76
2021/05/07 05:15:56;;;;;;;1.02;0.95;;;4.30;86.80;;;;;;5035146;28;20017;-75
2021/05/07 05:18:33;;;;;;;0.93;0.90;;;4.40;86.90;;;;;;5017109;28;20025;-75
2021/05/07 05:21:01;;;;;;;1.10;1.00;;;4.40;86.80;;;;;;5035070;28;20029;-76
2021/05/07 05:23:27;;;;;;;0.80;0.80;;;4.40;86.80;;;;;;5016689;28;20504;-76
2021/05/07 05:25:53;;;;;;;0.90;0.90;;;4.40;86.90;;;;;;5034795;28;20021;-77
2021/05/07 05:28:19;;;;;;;0.70;0.70;;;4.50;86.80;;;;;;5034922;28;20496;-74
2021/05/07 05:30:44;;;;;;;1.25;1.05;;;4.50;86.70;;;;;;5034733;28;20014;-74
2021/05/07 05:33:10;;;;;;;1.15;1.02;;;4.40;86.90;;;;;;5034834;28;20036;-75
2021/05/07 05:35:36;;;;;;;1.50;0.98;;;4.30;87.30;;;;;;5034803;28;20394;-76
2021/05/07 05:38:02;;;;;;;1.70;1.00;;;4.30;87.30;;;;;;5034249;28;20120;-75
2021/05/07 05:40:28;;;;;;;0.70;0.70;;;4.30;87.30;;;;;;5034705;28;20025;-75
2021/05/07 05:42:53;;;;;;;0.70;0.70;;;4.30;87.40;;;;;;5034293;28;20026;-76
2021/05/07 05:45:19;;;;;;;0.60;0.60;;;4.30;87.40;;;;;;5034592;28;20485;-76
2021/05/07 05:47:44;;;;;;;0.98;0.95;;;4.20;87.30;;;;;;5016713;28;20025;-77
2021/05/07 05:50:11;;;;;;;1.00;0.90;;;4.20;87.40;;;;;;5034493;28;20136;-73
2021/05/07 05:52:36;;;;;;;0.82;0.82;;;4.10;87.60;;;;;;5034034;28;20059;-76
2021/05/07 05:55:02;;;;;;;0.50;0.50;;;4.10;87.70;;;;;;5034231;28;20021;-76
2021/05/07 05:57:28;;;;;;;0.47;0.47;;;4.10;87.70;;;;;;5034310;28;20036;-76
2021/05/07 05:59:53;;;;;;;0.73;0.73;;;4.20;87.60;;;;;;5034225;28;20096;-77
2021/05/07 06:02:19;;;;;;;0.60;0.60;;;4.20;87.40;;;;;;5034350;28;20033;-79
2021/05/07 06:04:45;;;;;;;0.90;0.90;;;4.20;87.20;;;;;;5034300;28;20014;-77
2021/05/07 06:07:11;;;;;;;0.60;0.60;;;4.30;87.20;;;;;;5033799;28;20023;-74
2021/05/07 06:09:36;;;;;;;0.50;0.50;;;4.30;87.10;;;;;;5016541;28;20017;-76
2021/05/07 06:12:06;;;;;;;0.63;0.63;;;4.40;87.10;;;;;;5034119;28;20354;-75
2021/05/07 06:14:33;;;;;;;0.80;0.80;;;4.50;87.20;;;;;;5034173;28;20030;-77
2021/05/07 06:16:58;;;;;;;0.45;0.45;;;4.60;86.90;;;;;;5016288;28;20091;-76
2021/05/07 06:19:24;;;;;;;0.85;0.82;;;4.70;86.80;;;;;;5033658;28;20018;-76
2021/05/07 06:21:49;;;;;;;0.60;0.60;;;4.80;87.30;;;;;;5033371;28;20481;-76
2021/05/07 06:24:15;;;;;;;0.70;0.70;;;4.80;86.60;;;;;;5032603;28;20026;-77
2021/05/07 06:26:41;;;;;;;0.55;0.55;;;4.80;86.50;;;;;;5033464;28;20460;-77
2021/05/07 06:29:06;;;;;;;0.47;0.47;;;4.90;86.70;;;;;;5034139;28;20032;-77
2021/05/07 06:31:32;;;;;;;0.50;0.50;;;5.00;86.80;;;;;;5045812;28;20035;-75
2021/05/07 06:33:57;;;;;;;0.55;0.55;;;5.00;86.70;;;;;;5053506;28;20473;-76
2021/05/07 06:36:23;;;;;;;0.80;0.80;;;5.00;86.70;;;;;;5035402;28;20044;-76
2021/05/07 06:38:48;;;;;;;0.95;0.90;;;5.00;86.90;;;;;;5053647;28;20025;-76
2021/05/07 06:41:15;;;;;;;0.90;0.90;;;5.00;86.90;;;;;;5053351;28;20540;-77
2021/05/07 06:43:40;;;;;;;0.50;0.50;;;5.00;86.90;;;;;;5053717;28;20028;-77
2021/05/07 06:46:06;;;;;;;0.52;0.50;;;5.10;87.10;;;;;;5053565;28;20021;-76
2021/05/07 06:48:31;;;;;;;0.82;0.82;;;5.20;87.00;;;;;;5053332;28;20017;-76
2021/05/07 06:50:57;;;;;;;1.25;1.25;;;5.20;87.00;;;;;;5052724;28;20017;-75
2021/05/07 06:53:22;;;;;;;0.82;0.82;;;5.20;87.00;;;;;;5053258;28;20534;-76
2021/05/07 06:55:48;;;;;;;0.90;0.70;;;5.20;87.30;;;;;;5053357;28;20504;-76
2021/05/07 06:58:13;;;;;;;0.80;0.80;;;5.30;87.40;;;;;;5053301;28;20025;-77
2021/05/07 07:00:39;;;;;;;1.10;0.90;;;5.40;87.30;;;;;;5053285;28;20009;-77
2021/05/07 07:03:04;;;;;;;1.15;1.00;;;5.40;87.30;;;;;;5052999;28;20079;-74
2021/05/07 07:05:30;;;;;;;0.68;0.68;;;5.50;87.30;;;;;;5053129;28;20401;-74
2021/05/07 07:07:55;;;;;;;0.85;0.85;;;5.60;87.10;;;;;;5053144;28;20029;-73
2021/05/07 07:10:22;;;;;;;0.90;0.88;;;5.80;86.80;;;;;;5053074;28;20021;-73
2021/05/07 07:12:47;;;;;;;1.23;1.20;;;5.90;86.70;;;;;;5053070;28;20484;-74
2021/05/07 07:15:14;;;;;;;1.17;1.08;;;6.00;86.60;;;;;;5035184;28;20022;-74
2021/05/07 07:17:40;;;;;;;1.20;1.10;;;6.00;86.50;;;;;;5052919;28;20025;-73
2021/05/07 07:20:06;;;;;;;1.48;1.15;;;6.10;86.60;;;;;;5052551;28;20021;-74
2021/05/07 07:22:32;;;;;;;1.42;1.23;;;6.20;86.50;;;;;;5052809;28;20060;-74
2021/05/07 07:24:58;;;;;;;1.02;0.93;;;6.30;86.60;;;;;;5052900;28;20051;-73
2021/05/07 07:27:23;;;;;;;1.17;1.08;;;6.40;86.40;;;;;;5052717;28;20049;-74
2021/05/07 07:29:49;;;;;;;3.05;2.10;;;6.50;86.30;;;;;;5052904;28;20029;-74
2021/05/07 07:32:15;;;;;;;1.67;1.52;;;6.50;86.20;;;;;;5055865;28;20051;-73
2021/05/07 07:34:40;;;;;;;1.50;1.40;;;6.40;86.40;;;;;;5056711;28;20044;-74
2021/05/07 07:37:06;;;;;;;1.30;1.17;;;6.40;86.50;;;;;;5057028;28;20053;-73
2021/05/07 07:39:31;;;;;;;1.42;1.35;;;6.40;86.50;;;;;;5056836;28;20029;-74
2021/05/07 07:41:57;;;;;;;1.25;1.15;;;6.50;86.30;;;;;;5056705;28;20037;-74
2021/05/07 07:44:22;;;;;;;1.58;1.20;;;6.60;86.40;;;;;;5056838;28;20502;-74
2021/05/07 07:46:51;;;;;;;0.90;0.90;;;6.70;86.30;;;;;;5057402;28;20151;-74
2021/05/07 07:49:17;;;;;;;1.17;1.07;;;6.80;86.10;;;;;;5039151;28;20013;-73
2021/05/07 07:51:43;;;;;;;1.35;1.25;;;6.90;86.00;;;;;;5056708;28;20043;-72
2021/05/07 07:54:11;;;;;;;2.40;1.70;;;7.00;85.80;;;;;;5038578;28;20111;-74
2021/05/07 07:56:37;;;;;;;3.83;2.50;;;7.00;85.60;;;;;;5056434;28;20031;-73
2021/05/07 07:59:03;;;;;;;2.92;2.58;;;7.00;85.70;;;;;;5056556;28;20021;-73
2021/05/07 08:01:28;;;;;;;3.00;2.13;;;7.10;85.80;;;;;;5055883;28;20123;-74
2021/05/07 08:03:55;;;;;;;3.58;2.45;;;7.20;86.00;;;;;;5056538;28;20032;-72
2021/05/07 08:06:21;;;;;;;1.83;1.73;;;7.40;85.70;;;;;;5056429;28;20507;-73
2021/05/07 08:08:47;;;;;;;2.22;1.73;;;7.50;85.40;;;;;;5056304;28;20017;-73
2021/05/07 08:11:12;;;;;;;1.60;1.50;;;7.60;85.20;;;;;;5056442;28;20032;-73
2021/05/07 08:13:38;;;;;;;2.90;2.55;;;7.70;85.20;;;;;;5056281;28;20430;-72
2021/05/07 08:16:04;;;;;;;2.05;1.52;;;7.80;85.00;;;;;;5055856;28;20519;-73
2021/05/07 08:18:29;;;;;;;2.97;1.55;;;8.00;84.80;;;;;;5056187;28;20025;-72
2021/05/07 08:20:55;;;;;;;1.60;1.50;;;8.10;84.70;;;;;;5056105;28;20039;-73
2021/05/07 08:23:21;;;;;;;2.90;2.17;;;8.20;84.50;;;;;;5055935;28;20035;-74
2021/05/07 08:25:46;;;;;;;2.03;1.65;;;8.30;84.40;;;;;;5056110;28;20485;-73
2021/05/07 08:28:12;;;;;;;1.83;1.70;;;8.40;84.20;;;;;;5055727;28;20051;-73
2021/05/07 08:30:37;;;;;;;1.73;1.42;;;8.60;84.00;;;;;;5055415;28;20021;-72
2021/05/07 08:33:03;;;;;;;2.45;1.63;;;8.60;83.90;;;;;;5055983;28;20045;-73
2021/05/07 08:35:29;;;;;;;2.00;1.85;;;8.60;84.00;;;;;;5055811;28;20397;-72
2021/05/07 08:37:54;;;;;;;3.10;1.83;;;8.50;84.30;;;;;;5055767;28;20025;-73
2021/05/07 08:40:20;;;;;;;2.05;1.85;;;8.70;84.10;;;;;;5055722;28;20435;-73
2021/05/07 08:42:46;;;;;;;2.30;1.60;;;8.80;83.70;;;;;;5054847;28;20116;-73
2021/05/07 08:45:12;;;;;;;1.83;1.65;;;8.80;83.50;;;;;;5055338;28;20094;-73
2021/05/07 08:47:39;;;;;;;3.78;2.55;;;8.70;83.90;;;;;;5055564;28;20021;-72
2021/05/07 08:50:06;;;;;;;2.72;1.50;;;8.70;84.40;;;;;;5055590;28;20025;-73
2021/05/07 08:52:34;;;;;;;2.25;1.80;;;8.80;84.20;;;;;;5055406;28;20116;-72
2021/05/07 08:54:59;;;;;;;2.45;1.90;;;9.00;83.80;;;;;;5055457;28;20021;-72
2021/05/07 08:57:25;;;;;;;2.08;1.63;;;9.00;83.60;;;;;;5055463;28;20373;-72
2021/05/07 08:59:50;;;;;;;2.45;1.63;;;8.90;83.50;;;;;;5055020;28;20373;-72
2021/05/07 09:02:26;;;;;;;3.20;2.45;;;8.90;83.90;;;;;;5055325;28;20040;-73
2021/05/07 09:04:53;;;;;;;1.80;1.70;;;9.00;83.60;;;;;;5055328;28;20029;-72
2021/05/07 09:07:19;;;;;;;2.85;2.00;;;9.20;83.70;;;;;;5055219;28;20419;-71
2021/05/07 09:09:50;;;;;;;2.30;1.95;;;9.30;83.30;;;;;;5055302;28;20029;-73
2021/05/07 09:12:29;;;;;;;2.38;1.95;;;9.30;83.00;;;;;;5055187;28;20453;-73
2021/05/07 09:14:56;;;;;;;4.07;1.95;;;9.50;82.90;;;;;;5054590;28;20029;-73
2021/05/07 09:17:23;;;;;;;2.03;1.70;;;9.60;82.80;;;;;;5055172;28;20029;-72
2021/05/07 09:19:49;;;;;;;1.92;1.63;;;9.70;82.50;;;;;;5054822;28;20029;-73
2021/05/07 09:22:23;;;;;;;4.05;1.65;;;9.80;82.30;;;;;;5054831;28;20036;-72
2021/05/07 09:24:49;;;;;;;2.28;1.88;;;10.00;82.30;;;;;;5054985;28;20029;-73
2021/05/07 09:27:22;;;;;;;1.50;1.40;;;10.20;81.70;;;;;;5054749;28;20041;-73
2021/05/07 09:29:47;;;;;;;1.50;1.40;;;10.20;81.50;;;;;;5054375;28;20167;-73
2021/05/07 09:32:13;;;;;;;2.10;1.90;;;10.20;81.90;;;;;;5054794;28;20107;-73
2021/05/07 09:34:38;;;;;;;2.65;1.90;;;10.20;81.70;;;;;;5054709;28;20025;-73
2021/05/07 09:37:18;;;;;;;2.08;1.38;;;10.20;81.50;;;;;;5054609;28;20036;-73
2021/05/07 09:39:44;;;;;;;1.30;1.20;;;10.40;81.30;;;;;;5054599;28;20106;-73
2021/05/07 09:42:21;;;;;;;1.70;1.10;;;10.60;81.10;;;;;;5054582;28;20056;-73
2021/05/07 09:44:47;;;;;;;1.65;1.40;;;10.50;81.10;;;;;;5053986;28;20021;-72
2021/05/07 09:47:14;;;;;;;1.63;1.48;;;10.40;81.30;;;;;;5054595;28;20051;-73
2021/05/07 09:49:40;;;;;;;1.38;1.23;;;10.50;81.30;;;;;;5054427;28;20028;-73
2021/05/07 09:52:06;;;;;;;1.35;1.25;;;10.70;80.90;;;;;;5054349;28;20023;-72
2021/05/07 09:54:32;;;;;;;0.93;0.93;;;10.70;80.60;;;;;;5053409;28;20318;-72
2021/05/07 09:56:59;;;;;;;1.35;1.25;;;10.60;80.80;;;;;;5036351;28;20023;-72
2021/05/07 09:59:25;;;;;;;0.80;0.80;;;10.70;80.90;;;;;;5053800;28;20123;-73
2021/05/07 10:01:51;;;;;;;1.55;1.30;;;10.80;80.70;;;;;;5054110;28;20071;-73
2021/05/07 10:04:17;;;;;;;1.90;1.27;;;10.80;80.50;;;;;;5054241;28;20053;-74
2021/05/07 10:06:43;;;;;;;1.75;1.65;;;10.80;80.30;;;;;;5053842;28;20564;-73
2021/05/07 10:09:10;;;;;;;4.68;1.77;;;10.70;80.30;;;;;;5054028;28;20029;-73
2021/05/07 10:11:39;;;;;;;1.80;1.50;;;10.50;80.40;;;;;;5054074;28;20047;-72
2021/05/07 10:14:11;;;;;;;1.70;1.42;;;10.40;80.60;;;;;;5053477;28;20021;-72
2021/05/07 10:16:39;;;;;;;2.03;1.65;;;10.30;80.70;;;;;;5054208;28;20127;-73
2021/05/07 10:19:11;;;;;;;1.73;1.40;;;10.30;80.90;;;;;;5053747;28;20021;-73
2021/05/07 10:21:47;;;;;;;1.40;1.27;;;10.30;80.50;;;;;;5053658;28;20485;-74
2021/05/07 10:24:15;;;;;;;1.67;1.45;;;10.60;79.80;;;;;;5053892;28;20472;-75
2021/05/07 10:26:43;;;;;;;2.45;1.90;;;10.70;79.60;;;;;;5053058;28;20043;-72
2021/05/07 10:29:22;;;;;;;2.20;1.60;;;10.90;79.40;;;;;;5053929;28;20353;-73
2021/05/07 10:31:50;;;;;;;1.50;1.40;;;11.20;78.70;;;;;;5053637;28;20111;-73
2021/05/07 10:34:17;;;;;;;1.80;1.58;;;11.30;78.50;;;;;;5053480;28;20017;-72
2021/05/07 10:36:48;;;;;;;2.08;1.70;;;11.30;78.10;;;;;;5053529;28;20373;-72
2021/05/07 10:39:21;;;;;;;1.65;1.45;;;11.20;78.50;;;;;;5053602;28;20024;-73
2021/05/07 10:41:49;;;;;;;1.45;1.33;;;11.10;78.90;;;;;;5052909;28;20025;-74
2021/05/07 10:44:16;;;;;;;2.92;2.10;;;11.10;79.20;;;;;;5035630;28;20116;-73
2021/05/07 10:46:43;;;;;;;1.50;1.40;;;11.10;79.00;;;;;;5053473;28;20025;-72
2021/05/07 10:49:10;;;;;;;1.30;1.20;;;11.10;80.00;;;;;;5053085;28;20029;-74
2021/05/07 10:51:36;;;;;;;2.60;2.13;;;11.30;79.20;;;;;;5035307;28;20385;-72
2021/05/07 10:54:06;;;;;;;2.60;1.73;;;11.40;78.20;;;;;;5053213;28;20035;-72
2021/05/07 10:56:37;;;;;;;1.90;1.80;;;11.60;78.20;;;;;;5035018;28;20031;-73
2021/05/07 10:59:17;;;;;;;2.03;1.60;;;11.80;77.40;;;;;;5053270;28;20021;-72
2021/05/07 11:02:02;;;;;;;3.00;2.10;;;11.70;77.20;;;;;;5053018;28;20029;-72
2021/05/07 11:04:40;;;;;;;3.05;2.35;;;11.60;77.10;;;;;;5053231;28;20499;-73
2021/05/07 11:07:05;;;;;;;1.58;1.48;;;11.50;77.60;;;;;;5052809;28;20029;-73
2021/05/07 11:09:31;;;;;;;2.08;1.50;;;11.50;77.50;;;;;;5053098;28;20044;-73
2021/05/07 11:12:03;;;;;;;1.38;1.27;;;11.50;77.40;;;;;;5052726;28;20020;-73
2021/05/07 11:14:32;;;;;;;1.50;1.40;;;11.50;77.40;;;;;;5052971;28;20053;-73
2021/05/07 11:16:58;;;;;;;2.10;1.33;;;11.60;77.20;;;;;;5053067;28;20096;-72
2021/05/07 11:19:29;;;;;;;1.80;1.50;;;11.70;76.80;;;;;;5052885;28;20032;-73
2021/05/07 11:21:58;;;;;;;1.27;1.17;;;11.80;77.10;;;;;;5053068;28;20029;-73
2021/05/07 11:24:25;;;;;;;;;;;12.00;77.10;;;;;;5052914;28;20021;-74
2021/05/07 11:26:51;;;;;;;0.90;0.90;;;12.20;77.20;;;;;;5052762;28;19928;-73
2021/05/07 11:29:26;;;;;;;1.02;0.75;;;12.60;76.60;;;;;;5052656;28;20021;-73
2021/05/07 11:31:51;;;;;;;1.05;0.98;;;13.30;75.50;;;;;;5053027;28;20052;-73
2021/05/07 11:34:26;;;;;;;0.98;0.82;;;13.80;74.30;;;;;;5052979;28;20473;-72
2021/05/07 11:36:59;;;;;;;0.98;0.80;;;13.70;74.10;;;;;;5052976;28;20075;-74
2021/05/07 11:39:26;;;;;;;0.82;0.82;;;13.30;74.50;;;;;;5052265;28;20032;-73
2021/05/07 11:41:51;;;;;;;1.10;0.80;;;12.80;75.30;;;;;;5052825;28;20032;-72
2021/05/07 11:44:17;;;;;;;1.10;1.00;;;12.60;75.90;;;;;;5052767;28;20431;-72
2021/05/07 11:46:52;;;;;;;2.05;1.30;;;12.50;76.10;;;;;;5034860;28;20029;-73
2021/05/07 11:49:18;;;;;;;1.35;1.23;;;12.60;75.70;;;;;;5052753;28;20426;-73
2021/05/07 11:51:48;;;;;;;1.40;1.30;;;12.60;75.50;;;;;;5052647;28;20045;-73
2021/05/07 11:54:13;;;;;;;1.27;1.10;;;12.60;75.00;;;;;;5052175;28;20032;-72
2021/05/07 11:56:39;;;;;;;2.25;1.55;;;12.80;75.10;;;;;;5034580;28;20009;-72
2021/05/07 11:59:04;;;;;;;1.85;1.10;;;12.70;74.60;;;;;;5034626;28;20029;-73
2021/05/07 12:01:30;;;;;;;0.98;0.90;;;12.50;74.90;;;;;;5052564;28;20017;-73
2021/05/07 12:04:02;;;;;;;1.50;1.20;;;12.30;75.30;;;;;;5052725;28;20509;-73
2021/05/07 12:06:30;;;;;;;0.93;0.93;;;12.10;75.50;;;;;;5052514;28;20100;-73
2021/05/07 12:09:08;;;;;;;1.25;1.05;;;12.00;75.60;;;;;;5052099;28;20032;-73
2021/05/07 12:11:33;;;;;;;2.72;1.20;;;12.40;75.40;;;;;;5052672;28;20025;-73
2021/05/07 12:14:13;;;;;;;0.90;0.90;;;13.10;74.30;;;;;;5034722;28;20075;-74
2021/05/07 12:16:40;;;;;;;1.33;1.23;;;13.90;72.40;;;;;;5052563;28;20021;-74
2021/05/07 12:19:06;;;;;;;0.93;0.90;;;14.50;70.70;;;;;;5055092;28;20071;-73
2021/05/07 12:21:42;;;;;;;0.70;0.70;;;14.80;70.20;;;;;;5055912;28;20057;-72
2021/05/07 12:24:10;;;;;;;0.65;0.60;;;14.50;70.20;;;;;;5055660;28;20029;-74
2021/05/07 12:26:49;;;;;;;0.80;0.80;;;14.10;71.30;;;;;;5055841;28;20020;-73
2021/05/07 12:29:16;;;;;;;1.10;1.00;;;13.70;72.00;;;;;;5055868;28;20033;-73
2021/05/07 12:31:42;;;;;;;0.70;0.70;;;13.30;72.60;;;;;;5055968;28;20025;-72
2021/05/07 12:34:15;;;;;;;0.60;0.60;;;13.30;73.40;;;;;;5055933;28;20082;-73
2021/05/07 12:36:42;;;;;;;1.10;0.90;;;14.00;72.60;;;;;;5055707;28;20033;-74
2021/05/07 12:39:09;;;;;;;1.40;1.30;;;14.80;70.60;;;;;;5037564;28;20485;-73
2021/05/07 12:41:35;;;;;;;1.10;1.00;;;14.80;69.60;;;;;;5055529;28;20032;-74
2021/05/07 12:44:01;;;;;;;1.00;0.95;;;14.40;69.90;;;;;;5055690;28;20025;-75
2021/05/07 12:46:26;;;;;;;1.27;1.02;;;14.60;70.70;;;;;;5055471;28;20025;-74
2021/05/07 12:48:54;;;;;;;1.90;1.17;;;15.00;70.00;;;;;;5055754;28;20023;-73
2021/05/07 12:51:21;;;;;;;1.08;0.98;;;15.40;69.50;;;;;;5055179;28;20086;-74
2021/05/07 12:53:47;;;;;;;1.80;1.30;;;16.20;68.50;;;;;;5055547;28;20025;-73
2021/05/07 12:56:16;;;;;;;1.02;0.93;;;17.00;67.20;;;;;;5055612;28;20424;-76